Terminal Aerodrome Forecast
Issued by NWS

Home | Current Version | Previous Version | Text Only | Print | Product List | Glossary On
Versions: 1 2 3 4 5 6 7 8 9 10 11 12 13 14 15 16 17 18 19 20 21 22 23 24 25 26 27 28 29 30 31
000
FTUS45 KTFX 030207 AAQ
TAFEKS
TAF AMD
KEKS 030207Z 0302/0324 17012G20KT P6SM VCSH FEW080 SCT120
     FM030300 15012G20KT P6SM FEW070 SCT100
     FM030600 17009KT P6SM SCT080 BKN200
     FM031400 20012G20KT P6SM SCT070 BKN200
     FM031800 24017G27KT P6SM FEW070 SCT100 PROB30 0319/0324 5SM
      TSRA BR BKN070CB
     AMD NOT SKED=

USA.gov is the U.S. government's official web portal to all federal, state and local government web resources and services.